Time,TemperatureF,DewpointF,PressureIn,WindDirection,WindDirectionDegrees,WindSpeedMPH,WindSpeedGustMPH,Humidity,HourlyPrecipIn,Conditions,Clouds,dailyrainin,SoftwareType,DateUTC
2013-08-02 00:02:00,67.0,48.0,-100.00,WNW,284,5.0,12.0,50,-99.99,,,-99.99,,2013-08-02 06:02:00,
2013-08-02 00:12:00,67.0,48.0,-100.00,WNW,284,5.0,12.0,50,-99.99,,,-99.99,,2013-08-02 06:12:00,
2013-08-02 00:22:00,68.0,49.0,-100.00,West,279,3.0,6.0,50,-99.99,,,-99.99,,2013-08-02 06:22:00,
2013-08-02 00:33:00,68.0,49.0,-100.00,West,279,3.0,6.0,50,-99.99,,,-99.99,,2013-08-02 06:33:00,
2013-08-02 00:43:00,66.0,47.0,-100.00,North,359,3.0,10.0,50,-99.99,,,-99.99,,2013-08-02 06:43:00,
2013-08-02 00:52:00,66.0,47.0,-100.00,North,359,3.0,10.0,50,-99.99,,,-99.99,,2013-08-02 06:52:00,
2013-08-02 01:02:00,72.0,42.0,-100.00,SW,235,6.0,14.0,33,-99.99,,,-99.99,,2013-08-02 07:02:00,
2013-08-02 01:12:00,72.0,42.0,-100.00,SW,235,6.0,14.0,33,-99.99,,,-99.99,,2013-08-02 07:12:00,
2013-08-02 01:22:00,72.0,43.0,-100.00,SW,234,9.0,15.0,35,-99.99,,,-99.99,,2013-08-02 07:22:00,
2013-08-02 01:33:00,72.0,43.0,-100.00,SW,234,9.0,15.0,35,-99.99,,,-99.99,,2013-08-02 07:33:00,
2013-08-02 01:44:00,71.0,43.0,-100.00,WSW,249,5.0,11.0,36,-99.99,,,-99.99,,2013-08-02 07:44:00,
2013-08-02 01:53:00,71.0,43.0,-100.00,WSW,249,5.0,11.0,36,-99.99,,,-99.99,,2013-08-02 07:53:00,
2013-08-02 02:02:00,69.0,43.0,-100.00,West,259,4.0,8.0,39,-99.99,,,-99.99,,2013-08-02 08:02:00,
2013-08-02 02:12:00,66.0,43.0,-100.00,WSW,241,4.0,6.0,42,-99.99,,,-99.99,,2013-08-02 08:12:00,
2013-08-02 02:22:00,66.0,43.0,-100.00,WSW,241,4.0,6.0,42,-99.99,,,-99.99,,2013-08-02 08:22:00,
2013-08-02 02:33:00,66.0,43.0,-100.00,WSW,241,4.0,6.0,42,-99.99,,,-99.99,,2013-08-02 08:33:00,
2013-08-02 02:43:00,62.0,42.0,-100.00,West,259,6.0,8.0,47,-99.99,,,-99.99,,2013-08-02 08:43:00,
2013-08-02 02:54:00,62.0,42.0,-100.00,West,259,6.0,8.0,47,-99.99,,,-99.99,,2013-08-02 08:54:00,
2013-08-02 03:02:00,61.0,41.0,-100.00,West,260,6.0,9.0,47,-99.99,,,-99.99,,2013-08-02 09:02:00,
2013-08-02 03:12:00,61.0,41.0,-100.00,West,260,6.0,9.0,47,-99.99,,,-99.99,,2013-08-02 09:12:00,
2013-08-02 03:22:00,61.0,40.0,-100.00,West,264,3.0,7.0,46,-99.99,,,-99.99,,2013-08-02 09:22:00,
2013-08-02 03:33:00,61.0,40.0,-100.00,West,264,3.0,7.0,46,-99.99,,,-99.99,,2013-08-02 09:33:00,
2013-08-02 03:43:00,57.0,40.0,-100.00,WSW,242,3.0,7.0,54,-99.99,,,-99.99,,2013-08-02 09:43:00,
2013-08-02 03:53:00,57.0,40.0,-100.00,WSW,242,3.0,7.0,54,-99.99,,,-99.99,,2013-08-02 09:53:00,
2013-08-02 04:02:00,56.0,39.0,-100.00,WSW,251,6.0,8.0,52,-99.99,,,-99.99,,2013-08-02 10:02:00,
2013-08-02 04:12:00,56.0,39.0,-100.00,WSW,251,6.0,8.0,52,-99.99,,,-99.99,,2013-08-02 10:12:00,
2013-08-02 04:23:00,56.0,38.0,-100.00,WSW,245,5.0,8.0,50,-99.99,,,-99.99,,2013-08-02 10:23:00,
2013-08-02 04:33:00,56.0,38.0,-100.00,WSW,245,5.0,8.0,50,-99.99,,,-99.99,,2013-08-02 10:33:00,
2013-08-02 04:43:00,52.0,39.0,-100.00,WSW,244,3.0,4.0,61,-99.99,,,-99.99,,2013-08-02 10:43:00,
2013-08-02 04:52:00,52.0,39.0,-100.00,WSW,244,3.0,4.0,61,-99.99,,,-99.99,,2013-08-02 10:52:00,
2013-08-02 05:02:00,51.0,40.0,-100.00,SW,229,3.0,5.0,65,-99.99,,,-99.99,,2013-08-02 11:02:00,
2013-08-02 05:12:00,51.0,39.0,-100.00,SW,228,2.0,3.0,64,-99.99,,,-99.99,,2013-08-02 11:12:00,
2013-08-02 05:22:00,51.0,39.0,-100.00,SW,228,2.0,3.0,64,-99.99,,,-99.99,,2013-08-02 11:22:00,
2013-08-02 05:32:00,51.0,39.0,-100.00,SW,228,2.0,3.0,64,-99.99,,,-99.99,,2013-08-02 11:32:00,
2013-08-02 05:42:00,50.0,39.0,-100.00,SW,234,2.0,3.0,66,-99.99,,,-99.99,,2013-08-02 11:42:00,
2013-08-02 05:52:00,50.0,39.0,-100.00,SW,234,2.0,3.0,66,-99.99,,,-99.99,,2013-08-02 11:52:00,
2013-08-02 06:02:00,49.0,38.0,-100.00,WSW,240,2.0,4.0,67,-99.99,,,-99.99,,2013-08-02 12:02:00,
2013-08-02 06:12:00,48.0,38.0,-100.00,WSW,243,2.0,4.0,69,-99.99,,,-99.99,,2013-08-02 12:12:00,
2013-08-02 06:22:00,48.0,38.0,-100.00,WSW,243,2.0,4.0,69,-99.99,,,-99.99,,2013-08-02 12:22:00,
2013-08-02 06:32:00,48.0,38.0,-100.00,WSW,243,2.0,4.0,69,-99.99,,,-99.99,,2013-08-02 12:32:00,
2013-08-02 06:42:00,47.0,38.0,-100.00,SW,228,2.0,5.0,71,-99.99,,,-99.99,,2013-08-02 12:42:00,
2013-08-02 06:52:00,47.0,38.0,-100.00,SW,228,2.0,5.0,71,-99.99,,,-99.99,,2013-08-02 12:52:00,
2013-08-02 07:02:00,48.0,39.0,-100.00,WSW,237,1.0,3.0,70,-99.99,,,-99.99,,2013-08-02 13:02:00,
2013-08-02 07:12:00,48.0,39.0,-100.00,WSW,237,1.0,3.0,70,-99.99,,,-99.99,,2013-08-02 13:12:00,
2013-08-02 07:22:00,47.0,38.0,-100.00,WSW,247,3.0,4.0,70,-99.99,,,-99.99,,2013-08-02 13:22:00,
2013-08-02 07:33:00,47.0,38.0,-100.00,WSW,247,3.0,4.0,70,-99.99,,,-99.99,,2013-08-02 13:33:00,
2013-08-02 07:42:00,52.0,40.0,-100.00,SSW,212,0.0,2.0,63,-99.99,,,-99.99,,2013-08-02 13:42:00,
2013-08-02 07:52:00,52.0,40.0,-100.00,SSW,212,0.0,2.0,63,-99.99,,,-99.99,,2013-08-02 13:52:00,
2013-08-02 08:02:00,58.0,42.0,-100.00,SW,215,0.0,1.0,55,-99.99,,,-99.99,,2013-08-02 14:02:00,
2013-08-02 08:12:00,61.0,41.0,-100.00,ESE,110,0.0,2.0,48,-99.99,,,-99.99,,2013-08-02 14:12:00,
2013-08-02 08:22:00,61.0,41.0,-100.00,ESE,110,0.0,2.0,48,-99.99,,,-99.99,,2013-08-02 14:22:00,
2013-08-02 08:32:00,61.0,41.0,-100.00,ESE,110,0.0,2.0,48,-99.99,,,-99.99,,2013-08-02 14:32:00,
2013-08-02 08:43:00,64.0,43.0,-100.00,East,100,1.0,2.0,46,-99.99,,,-99.99,,2013-08-02 14:43:00,
2013-08-02 08:53:00,64.0,43.0,-100.00,East,100,1.0,2.0,46,-99.99,,,-99.99,,2013-08-02 14:53:00,
2013-08-02 09:03:00,65.0,41.0,-100.00,NE,54,0.0,2.0,41,-99.99,,,-99.99,,2013-08-02 15:03:00,
2013-08-02 09:12:00,65.0,41.0,-100.00,NE,54,0.0,2.0,41,-99.99,,,-99.99,,2013-08-02 15:12:00,
2013-08-02 09:22:00,65.0,42.0,-100.00,NE,50,1.0,3.0,42,-99.99,,,-99.99,,2013-08-02 15:22:00,
2013-08-02 09:32:00,65.0,42.0,-100.00,NE,50,1.0,3.0,42,-99.99,,,-99.99,,2013-08-02 15:32:00,
2013-08-02 09:52:00,67.0,44.0,-100.00,NE,52,2.0,4.0,43,-99.99,,,-99.99,,2013-08-02 15:52:00,
2013-08-02 10:02:00,69.0,47.0,-100.00,East,91,3.0,7.0,44,-99.99,,,-99.99,,2013-08-02 16:02:00,
2013-08-02 10:12:00,69.0,47.0,-100.00,East,91,3.0,7.0,44,-99.99,,,-99.99,,2013-08-02 16:12:00,
2013-08-02 10:22:00,73.0,49.0,-100.00,ESE,114,4.0,8.0,42,-99.99,,,-99.99,,2013-08-02 16:22:00,
2013-08-02 10:32:00,73.0,49.0,-100.00,ESE,114,4.0,8.0,42,-99.99,,,-99.99,,2013-08-02 16:32:00,
2013-08-02 10:43:00,73.0,50.0,-100.00,ESE,114,3.0,6.0,43,-99.99,,,-99.99,,2013-08-02 16:43:00,
2013-08-02 10:52:00,73.0,50.0,-100.00,ESE,114,3.0,6.0,43,-99.99,,,-99.99,,2013-08-02 16:52:00,
2013-08-02 11:02:00,73.0,48.0,-100.00,North,11,3.0,6.0,41,-99.99,,,-99.99,,2013-08-02 17:02:00,
2013-08-02 11:12:00,73.0,48.0,-100.00,North,11,3.0,6.0,41,-99.99,,,-99.99,,2013-08-02 17:12:00,
2013-08-02 11:22:00,73.0,47.0,-100.00,NNW,341,2.0,6.0,40,-99.99,,,-99.99,,2013-08-02 17:22:00,
2013-08-02 11:34:00,73.0,47.0,-100.00,NNW,341,2.0,6.0,40,-99.99,,,-99.99,,2013-08-02 17:34:00,
2013-08-02 11:43:00,77.0,38.0,-100.00,WSW,240,10.0,16.0,25,-99.99,,,-99.99,,2013-08-02 17:43:00,
2013-08-02 11:52:00,77.0,38.0,-100.00,WSW,240,10.0,16.0,25,-99.99,,,-99.99,,2013-08-02 17:52:00,
2013-08-02 12:02:00,77.0,38.0,-100.00,WSW,252,8.0,14.0,24,-99.99,,,-99.99,,2013-08-02 18:02:00,
2013-08-02 12:22:00,78.0,36.0,-100.00,WSW,248,7.0,13.0,22,-99.99,,,-99.99,,2013-08-02 18:22:00,
2013-08-02 12:32:00,78.0,36.0,-100.00,WSW,248,7.0,13.0,22,-99.99,,,-99.99,,2013-08-02 18:32:00,
2013-08-02 12:52:00,77.0,35.0,-100.00,West,264,7.0,13.0,21,-99.99,,,-99.99,,2013-08-02 18:52:00,
2013-08-02 13:12:00,79.0,35.0,-100.00,West,267,6.0,13.0,20,-99.99,,,-99.99,,2013-08-02 19:12:00,
2013-08-02 13:22:00,79.0,31.0,-100.00,WNW,282,7.0,14.0,17,-99.99,,,-99.99,,2013-08-02 19:22:00,
2013-08-02 13:32:00,79.0,31.0,-100.00,WNW,282,7.0,14.0,17,-99.99,,,-99.99,,2013-08-02 19:32:00,
2013-08-02 13:43:00,82.0,30.0,-100.00,WSW,247,7.0,14.0,15,-99.99,,,-99.99,,2013-08-02 19:43:00,
2013-08-02 13:52:00,82.0,30.0,-100.00,WSW,247,7.0,14.0,15,-99.99,,,-99.99,,2013-08-02 19:52:00,
2013-08-02 14:02:00,81.0,28.0,-100.00,WNW,287,5.0,14.0,14,-99.99,,,-99.99,,2013-08-02 20:02:00,
2013-08-02 14:12:00,81.0,28.0,-100.00,WNW,287,5.0,14.0,14,-99.99,,,-99.99,,2013-08-02 20:12:00,
2013-08-02 14:22:00,83.0,29.0,-100.00,WSW,249,5.0,14.0,14,-99.99,,,-99.99,,2013-08-02 20:22:00,
2013-08-02 14:32:00,83.0,29.0,-100.00,WSW,249,5.0,14.0,14,-99.99,,,-99.99,,2013-08-02 20:32:00,
2013-08-02 14:43:00,85.0,27.0,-100.00,SSW,212,8.0,22.0,12,-99.99,,,-99.99,,2013-08-02 20:43:00,
2013-08-02 14:52:00,85.0,27.0,-100.00,SSW,212,8.0,22.0,12,-99.99,,,-99.99,,2013-08-02 20:52:00,
2013-08-02 15:02:00,84.0,28.0,-100.00,South,178,8.0,18.0,13,-99.99,,,-99.99,,2013-08-02 21:02:00,
2013-08-02 15:12:00,84.0,28.0,-100.00,South,178,8.0,18.0,13,-99.99,,,-99.99,,2013-08-02 21:12:00,
2013-08-02 15:22:00,84.0,28.0,-100.00,SSW,206,5.0,18.0,12,-99.99,,,-99.99,,2013-08-02 21:22:00,
2013-08-02 15:32:00,84.0,28.0,-100.00,SSW,206,5.0,18.0,12,-99.99,,,-99.99,,2013-08-02 21:32:00,
2013-08-02 15:43:00,85.0,26.0,-100.00,South,185,5.0,13.0,11,-99.99,,,-99.99,,2013-08-02 21:43:00,
2013-08-02 15:53:00,85.0,26.0,-100.00,South,185,5.0,13.0,11,-99.99,,,-99.99,,2013-08-02 21:53:00,
2013-08-02 16:02:00,85.0,25.0,-100.00,SSE,161,6.0,18.0,11,-99.99,,,-99.99,,2013-08-02 22:02:00,
2013-08-02 16:22:00,84.0,26.0,-100.00,SE,142,9.0,18.0,12,-99.99,,,-99.99,,2013-08-02 22:22:00,
2013-08-02 16:32:00,84.0,26.0,-100.00,SE,142,9.0,18.0,12,-99.99,,,-99.99,,2013-08-02 22:32:00,
2013-08-02 16:52:00,84.0,23.0,-100.00,SSW,209,4.0,10.0,10,-99.99,,,-99.99,,2013-08-02 22:52:00,
2013-08-02 17:02:00,84.0,23.0,-100.00,SSW,209,4.0,10.0,10,-99.99,,,-99.99,,2013-08-02 23:02:00,
2013-08-02 17:12:00,85.0,22.0,-100.00,WSW,240,8.0,20.0,9,-99.99,,,-99.99,,2013-08-02 23:12:00,
2013-08-02 17:22:00,84.0,21.0,-100.00,SW,233,10.0,22.0,9,-99.99,,,-99.99,,2013-08-02 23:22:00,
2013-08-02 17:32:00,84.0,21.0,-100.00,SW,233,10.0,22.0,9,-99.99,,,-99.99,,2013-08-02 23:32:00,
2013-08-02 17:43:00,84.0,23.0,-100.00,WSW,237,5.0,11.0,10,-99.99,,,-99.99,,2013-08-02 23:43:00,
2013-08-02 17:53:00,84.0,23.0,-100.00,WSW,237,5.0,11.0,10,-99.99,,,-99.99,,2013-08-02 23:53:00,
2013-08-02 18:02:00,84.0,24.0,-100.00,WSW,248,7.0,16.0,11,-99.99,,,-99.99,,2013-08-03 00:02:00,
2013-08-02 18:12:00,84.0,24.0,-100.00,WSW,248,7.0,16.0,11,-99.99,,,-99.99,,2013-08-03 00:12:00,
2013-08-02 18:22:00,84.0,25.0,-100.00,West,271,5.0,13.0,11,-99.99,,,-99.99,,2013-08-03 00:22:00,
2013-08-02 18:32:00,84.0,25.0,-100.00,West,271,5.0,13.0,11,-99.99,,,-99.99,,2013-08-03 00:32:00,
2013-08-02 18:43:00,84.0,25.0,-100.00,West,271,5.0,13.0,11,-99.99,,,-99.99,,2013-08-03 00:43:00,
2013-08-02 18:52:00,84.0,27.0,-100.00,West,277,5.0,13.0,12,-99.99,,,-99.99,,2013-08-03 00:52:00,
2013-08-02 19:12:00,84.0,27.0,-100.00,WNW,282,6.0,12.0,12,-99.99,,,-99.99,,2013-08-03 01:12:00,
2013-08-02 19:22:00,84.0,28.0,-100.00,West,270,5.0,9.0,13,-99.99,,,-99.99,,2013-08-03 01:22:00,
2013-08-02 19:32:00,84.0,28.0,-100.00,West,270,5.0,9.0,13,-99.99,,,-99.99,,2013-08-03 01:32:00,
2013-08-02 19:42:00,84.0,28.0,-100.00,WNW,284,4.0,9.0,12,-99.99,,,-99.99,,2013-08-03 01:42:00,
2013-08-02 19:53:00,84.0,28.0,-100.00,WNW,284,4.0,9.0,12,-99.99,,,-99.99,,2013-08-03 01:53:00,
2013-08-02 20:02:00,81.0,28.0,-100.00,WNW,286,3.0,6.0,14,-99.99,,,-99.99,,2013-08-03 02:02:00,
2013-08-02 20:12:00,81.0,28.0,-100.00,WNW,286,3.0,6.0,14,-99.99,,,-99.99,,2013-08-03 02:12:00,
2013-08-02 20:22:00,78.0,35.0,-100.00,WSW,240,4.0,7.0,20,-99.99,,,-99.99,,2013-08-03 02:22:00,
2013-08-02 20:32:00,78.0,35.0,-100.00,WSW,240,4.0,7.0,20,-99.99,,,-99.99,,2013-08-03 02:32:00,
2013-08-02 20:43:00,72.0,35.0,-100.00,West,266,4.0,7.0,26,-99.99,,,-99.99,,2013-08-03 02:43:00,
2013-08-02 20:52:00,72.0,35.0,-100.00,West,266,4.0,7.0,26,-99.99,,,-99.99,,2013-08-03 02:52:00,
2013-08-02 21:02:00,70.0,35.0,-100.00,WSW,251,4.0,8.0,27,-99.99,,,-99.99,,2013-08-03 03:02:00,
2013-08-02 21:22:00,68.0,35.0,-100.00,WSW,255,6.0,10.0,29,-99.99,,,-99.99,,2013-08-03 03:22:00,
2013-08-02 21:32:00,68.0,35.0,-100.00,WSW,255,6.0,10.0,29,-99.99,,,-99.99,,2013-08-03 03:32:00,
2013-08-02 21:43:00,66.0,33.0,-100.00,WSW,256,7.0,9.0,29,-99.99,,,-99.99,,2013-08-03 03:43:00,
2013-08-02 21:53:00,66.0,33.0,-100.00,WSW,256,7.0,9.0,29,-99.99,,,-99.99,,2013-08-03 03:53:00,
2013-08-02 22:02:00,65.0,34.0,-100.00,SW,232,2.0,7.0,30,-99.99,,,-99.99,,2013-08-03 04:02:00,
2013-08-02 22:12:00,65.0,34.0,-100.00,SW,232,2.0,7.0,30,-99.99,,,-99.99,,2013-08-03 04:12:00,
2013-08-02 22:22:00,63.0,35.0,-100.00,SW,226,2.0,6.0,34,-99.99,,,-99.99,,2013-08-03 04:22:00,
2013-08-02 22:32:00,63.0,35.0,-100.00,SW,226,2.0,6.0,34,-99.99,,,-99.99,,2013-08-03 04:32:00,
2013-08-02 22:53:00,60.0,34.0,-100.00,SW,219,3.0,4.0,36,-99.99,,,-99.99,,2013-08-03 04:53:00,
2013-08-02 23:22:00,57.0,36.0,-100.00,SW,228,3.0,4.0,44,-99.99,,,-99.99,,2013-08-03 05:22:00,
2013-08-02 23:32:00,57.0,36.0,-100.00,SW,228,3.0,4.0,44,-99.99,,,-99.99,,2013-08-03 05:32:00,
2013-08-02 23:52:00,56.0,35.0,-100.00,WSW,240,4.0,6.0,44,-99.99,,,-99.99,,2013-08-03 05:52:00,